Terminal Aerodrome Forecast
Issued by NWS

Home | Current Version | Previous Version | Graphics & Text | Print | Product List | Glossary On
Versions: 1 2 3 4 5 6 7 8 9 10 11 12 13 14 15 16 17 18 19 20 21
099
FTUS43 KBIS 240538 AAA
TAFMOT
TAF AMD
KMOT 240538Z 2406/2506 33006KT P6SM SCT100
      TEMPO 2408/2412 2SM BR BKN015
     FM241200 35005KT 6SM BR SCT015
     FM241500 03006KT P6SM SCT015
     FM241800 06005KT P6SM SCT030
     FM242200 10006KT P6SM SCT030
     FM250500 13008KT P6SM SCT100=

USA.gov is the U.S. government's official web portal to all federal, state and local government web resources and services.